createdAt,value
2018-03-17T00:01:41.008Z,18.13
2018-03-17T00:04:11.619Z,15.30
2018-03-17T00:06:40.542Z,18.00
2018-03-17T00:09:15.832Z,18.07
2018-03-17T00:11:49.411Z,16.93
2018-03-17T00:14:16.858Z,18.07
2018-03-17T00:16:44.277Z,16.50
2018-03-17T00:19:15.152Z,17.23
2018-03-17T00:21:51.013Z,16.87
2018-03-17T00:24:19.310Z,17.60
2018-03-17T00:26:46.814Z,18.90
2018-03-17T00:29:14.278Z,17.17
2018-03-17T00:31:42.676Z,17.60
2018-03-17T00:34:10.103Z,16.47
2018-03-17T00:36:37.576Z,17.53
2018-03-17T00:39:05.043Z,19.03
2018-03-17T00:41:32.457Z,16.77
2018-03-17T00:43:59.869Z,17.00
2018-03-17T00:46:27.280Z,18.63
2018-03-17T00:48:54.740Z,18.90
2018-03-17T00:51:22.145Z,18.10
2018-03-17T00:53:49.562Z,17.63
2018-03-17T00:56:17.005Z,17.40
2018-03-17T00:58:44.442Z,17.63
2018-03-17T01:01:11.846Z,17.97
2018-03-17T01:03:39.247Z,18.70
2018-03-17T01:06:06.722Z,17.97
2018-03-17T01:08:34.101Z,18.53
2018-03-17T01:11:01.562Z,18.73
2018-03-17T01:13:28.963Z,18.77
2018-03-17T01:15:56.385Z,19.03
2018-03-17T01:18:23.807Z,17.70
2018-03-17T01:20:51.586Z,19.10
2018-03-17T01:23:19.038Z,18.47
2018-03-17T01:25:46.446Z,18.03
2018-03-17T01:28:13.860Z,18.10
2018-03-17T01:30:41.305Z,18.83
2018-03-17T01:33:08.764Z,18.10
2018-03-17T01:35:36.212Z,18.90
2018-03-17T01:38:03.761Z,16.57
2018-03-17T01:40:31.443Z,18.20
2018-03-17T01:42:59.051Z,17.50
2018-03-17T01:45:26.484Z,18.37
2018-03-17T01:47:53.979Z,18.47
2018-03-17T01:50:21.457Z,18.50
2018-03-17T01:52:48.989Z,18.20
2018-03-17T01:55:16.429Z,17.40
2018-03-17T01:57:43.870Z,18.47
2018-03-17T02:00:11.553Z,18.47
2018-03-17T02:02:39.108Z,18.40
2018-03-17T02:05:06.518Z,18.40
2018-03-17T02:07:33.975Z,17.97
2018-03-17T02:10:01.503Z,18.00
2018-03-17T02:12:28.957Z,19.23
2018-03-17T02:14:56.659Z,18.20
2018-03-17T02:17:24.090Z,18.23
2018-03-17T02:19:51.542Z,16.80
2018-03-17T02:22:19.028Z,18.77
2018-03-17T02:24:46.617Z,19.50
2018-03-17T02:27:14.088Z,18.80
2018-03-17T02:29:41.592Z,19.30
2018-03-17T02:32:09.068Z,19.70
2018-03-17T02:34:36.519Z,20.17
2018-03-17T02:37:04.082Z,19.57
2018-03-17T02:39:31.616Z,18.73
2018-03-17T02:41:59.447Z,19.23
2018-03-17T02:44:27.003Z,20.73
2018-03-17T02:46:54.592Z,21.10
2018-03-17T02:49:22.040Z,21.40
2018-03-17T02:51:49.555Z,21.07
2018-03-17T02:54:17.081Z,20.87
2018-03-17T02:56:44.735Z,22.03
2018-03-17T02:59:13.114Z,21.20
2018-03-17T03:01:40.804Z,22.40
2018-03-17T03:04:08.377Z,20.23
2018-03-17T03:06:35.851Z,21.70
2018-03-17T03:09:03.300Z,21.67
2018-03-17T03:11:30.720Z,22.83
2018-03-17T03:13:58.389Z,20.67
2018-03-17T03:16:25.882Z,22.93
2018-03-17T03:18:53.407Z,22.43
2018-03-17T03:21:20.888Z,22.13
2018-03-17T03:23:48.318Z,22.70
2018-03-17T03:26:15.748Z,21.50
2018-03-17T03:28:43.247Z,21.23
2018-03-17T03:31:10.752Z,20.70
2018-03-17T03:33:38.140Z,22.43
2018-03-17T03:36:05.558Z,21.90
2018-03-17T03:38:32.960Z,24.10
2018-03-17T03:41:00.379Z,23.57
2018-03-17T03:43:27.973Z,20.43
2018-03-17T03:45:55.369Z,22.03
2018-03-17T03:48:22.775Z,21.60
2018-03-17T03:50:50.187Z,21.33
2018-03-17T03:53:17.609Z,20.10
2018-03-17T03:55:45.044Z,23.37
2018-03-17T03:58:12.458Z,22.80
2018-03-17T04:00:39.856Z,21.90
2018-03-17T04:03:07.283Z,21.67
2018-03-17T04:05:34.679Z,20.53
2018-03-17T04:08:02.099Z,20.90
2018-03-17T04:10:29.486Z,22.07
2018-03-17T04:12:56.948Z,21.50
2018-03-17T04:15:24.404Z,21.53
2018-03-17T04:17:51.882Z,21.03
2018-03-17T04:20:19.285Z,20.50
2018-03-17T04:22:47.027Z,21.43
2018-03-17T04:25:14.518Z,22.40
2018-03-17T04:27:41.934Z,20.50
2018-03-17T04:30:09.371Z,20.17
2018-03-17T04:32:36.785Z,21.67
2018-03-17T04:35:04.186Z,22.50
2018-03-17T04:37:31.596Z,22.23
2018-03-17T04:39:58.996Z,20.50
2018-03-17T04:42:26.428Z,20.83
2018-03-17T04:44:53.866Z,21.70
2018-03-17T04:47:21.275Z,23.17
2018-03-17T04:49:48.649Z,23.13
2018-03-17T04:52:16.034Z,21.63
2018-03-17T04:54:43.446Z,19.57
2018-03-17T04:57:10.842Z,19.00
2018-03-17T04:59:38.271Z,20.53
2018-03-17T05:02:05.688Z,23.20
2018-03-17T05:04:33.111Z,21.87
2018-03-17T05:07:00.503Z,21.57
2018-03-17T05:09:27.905Z,20.73
2018-03-17T05:11:55.311Z,20.70
2018-03-17T05:14:22.769Z,20.10
2018-03-17T05:16:50.171Z,19.87
2018-03-17T05:19:17.610Z,20.70
2018-03-17T05:21:45.053Z,19.33
2018-03-17T05:24:12.432Z,20.40
2018-03-17T05:26:39.844Z,17.97
2018-03-17T05:29:07.244Z,19.00
2018-03-17T05:31:34.687Z,21.40
2018-03-17T05:34:02.070Z,17.17
2018-03-17T05:36:29.481Z,19.70
2018-03-17T05:38:56.882Z,18.83
2018-03-17T05:41:24.328Z,19.90
2018-03-17T05:43:51.728Z,19.33
2018-03-17T05:46:19.141Z,20.10
2018-03-17T05:48:46.541Z,22.03
2018-03-17T05:51:13.961Z,19.70
2018-03-17T05:53:41.362Z,21.43
2018-03-17T05:56:08.778Z,17.37
2018-03-17T05:58:36.175Z,16.23
2018-03-17T06:01:03.584Z,18.80
2018-03-17T06:03:30.979Z,20.23
2018-03-17T06:05:58.435Z,19.53
2018-03-17T06:08:25.867Z,17.67
2018-03-17T06:10:53.294Z,18.87
2018-03-17T06:13:20.731Z,19.23
2018-03-17T06:15:48.125Z,16.63
2018-03-17T06:18:15.534Z,18.93
2018-03-17T06:20:42.944Z,15.63
2018-03-17T06:23:10.373Z,14.50
2018-03-17T06:25:37.786Z,15.63
2018-03-17T06:28:05.253Z,16.57
2018-03-17T06:30:32.667Z,17.37
2018-03-17T06:33:00.099Z,16.03
2018-03-17T06:35:27.537Z,13.40
2018-03-17T06:37:55.281Z,17.80
2018-03-17T06:40:22.727Z,17.23
2018-03-17T06:42:50.348Z,16.80
2018-03-17T06:45:17.792Z,15.17
2018-03-17T06:47:45.192Z,17.43
2018-03-17T06:50:12.602Z,18.20
2018-03-17T06:52:40.029Z,19.83
2018-03-17T06:55:07.433Z,14.50
2018-03-17T06:57:34.871Z,16.73
2018-03-17T07:00:02.326Z,16.93
2018-03-17T07:02:29.835Z,17.50
2018-03-17T07:04:57.245Z,15.90
2018-03-17T07:07:24.660Z,15.63
2018-03-17T07:09:52.117Z,15.87
2018-03-17T07:12:19.533Z,16.63
2018-03-17T07:14:46.971Z,16.77
2018-03-17T07:17:14.447Z,16.73
2018-03-17T07:19:41.880Z,13.63
2018-03-17T07:22:09.317Z,14.47
2018-03-17T07:24:36.734Z,12.17
2018-03-17T07:27:04.252Z,15.13
2018-03-17T07:29:31.703Z,11.50
2018-03-17T07:31:59.132Z,13.83
2018-03-17T07:34:26.540Z,13.53
2018-03-17T07:36:53.991Z,14.93
2018-03-17T07:39:21.367Z,13.07
2018-03-17T07:41:48.797Z,13.77
2018-03-17T07:44:16.244Z,14.27
2018-03-17T07:46:43.698Z,14.67
2018-03-17T07:49:11.110Z,15.50
2018-03-17T07:51:38.544Z,12.90
2018-03-17T07:54:05.979Z,12.33
2018-03-17T07:56:33.355Z,14.70
2018-03-17T07:59:00.791Z,15.10
2018-03-17T08:01:28.179Z,15.27
2018-03-17T08:03:55.608Z,13.80
2018-03-17T08:06:23.036Z,15.20
2018-03-17T08:08:50.497Z,13.80
2018-03-17T08:11:17.884Z,11.90
2018-03-17T08:13:45.295Z,13.90
2018-03-17T08:16:12.697Z,10.37
2018-03-17T08:18:40.114Z,12.43
2018-03-17T08:21:07.542Z,12.40
2018-03-17T08:23:34.987Z,11.70
2018-03-17T08:26:02.429Z,12.53
2018-03-17T08:28:29.985Z,10.00
2018-03-17T08:30:57.496Z,13.70
2018-03-17T08:33:24.904Z,15.57
2018-03-17T08:35:52.346Z,14.20
2018-03-17T08:38:19.820Z,14.77
2018-03-17T08:40:47.253Z,13.30
2018-03-17T08:43:14.667Z,9.23
2018-03-17T08:45:42.076Z,13.20
2018-03-17T08:48:09.496Z,11.77
2018-03-17T08:50:36.913Z,10.93
2018-03-17T08:53:05.317Z,11.40
2018-03-17T08:55:32.720Z,12.50
2018-03-17T08:58:00.121Z,12.57
2018-03-17T09:00:27.532Z,13.70
2018-03-17T09:02:54.973Z,11.07
2018-03-17T09:05:22.462Z,11.03
2018-03-17T09:07:49.854Z,11.50
2018-03-17T09:10:17.269Z,10.00
2018-03-17T09:12:44.697Z,10.43
2018-03-17T09:15:12.113Z,9.60
2018-03-17T09:17:39.570Z,11.67
2018-03-17T09:20:07.028Z,9.53
2018-03-17T09:22:34.489Z,10.60
2018-03-17T09:25:01.885Z,9.73
2018-03-17T09:27:32.218Z,10.50
2018-03-17T09:29:59.667Z,10.73
2018-03-17T09:32:27.087Z,10.60
2018-03-17T09:34:54.488Z,11.47
2018-03-17T09:37:21.960Z,11.33
2018-03-17T09:39:49.405Z,10.00
2018-03-17T09:42:16.892Z,9.63
2018-03-17T09:44:44.229Z,10.17
2018-03-17T09:47:11.671Z,9.40
2018-03-17T09:49:39.093Z,8.10
2018-03-17T09:52:06.538Z,9.27
2018-03-17T09:54:33.952Z,9.13
2018-03-17T09:57:01.365Z,9.27
2018-03-17T09:59:28.790Z,9.97
2018-03-17T10:01:56.205Z,9.20
2018-03-17T10:04:24.403Z,7.97
2018-03-17T10:06:51.862Z,8.93
2018-03-17T10:09:19.299Z,8.90
2018-03-17T10:11:46.697Z,9.77
2018-03-17T10:14:14.155Z,10.27
2018-03-17T10:16:41.570Z,9.10
2018-03-17T10:19:09.009Z,9.57
2018-03-17T10:21:36.477Z,8.73
2018-03-17T10:24:03.902Z,10.90
2018-03-17T10:26:31.339Z,10.00
2018-03-17T10:28:58.755Z,7.67
2018-03-17T10:31:26.178Z,6.80
2018-03-17T10:33:53.587Z,8.30
2018-03-17T10:36:21.053Z,7.87
2018-03-17T10:38:49.426Z,7.00
2018-03-17T10:41:16.930Z,9.60
2018-03-17T10:43:44.462Z,9.03
2018-03-17T10:46:12.084Z,8.73
2018-03-17T10:48:39.488Z,8.80
2018-03-17T10:51:08.260Z,8.87
2018-03-17T10:53:35.784Z,9.37
2018-03-17T10:56:03.278Z,9.30
2018-03-17T10:58:30.625Z,7.30
2018-03-17T11:01:00.065Z,8.40
2018-03-17T11:03:27.471Z,8.33
2018-03-17T11:05:55.005Z,7.97
2018-03-17T11:08:22.495Z,7.80
2018-03-17T11:10:49.887Z,7.17
2018-03-17T11:13:17.298Z,8.50
2018-03-17T11:15:44.723Z,8.67
2018-03-17T11:18:12.141Z,9.50
2018-03-17T11:20:39.970Z,7.87
2018-03-17T11:23:07.412Z,9.17
2018-03-17T11:25:34.817Z,8.33
2018-03-17T11:28:02.233Z,7.37
2018-03-17T11:30:29.773Z,8.23
2018-03-17T11:32:57.318Z,6.50
2018-03-17T11:35:24.748Z,6.67
2018-03-17T11:37:52.159Z,7.97
2018-03-17T11:40:19.587Z,9.07
2018-03-17T11:42:46.998Z,7.97
2018-03-17T11:45:14.429Z,8.70
2018-03-17T11:47:41.847Z,8.20
2018-03-17T11:50:09.446Z,9.27
2018-03-17T11:52:36.910Z,9.20
2018-03-17T11:55:04.345Z,9.17
2018-03-17T11:57:31.726Z,8.63
2018-03-17T11:59:59.191Z,8.63
2018-03-17T12:02:26.597Z,8.87
2018-03-17T12:04:54.009Z,9.57
2018-03-17T12:07:21.416Z,8.00
2018-03-17T12:09:48.838Z,9.13
2018-03-17T12:12:16.328Z,7.87
2018-03-17T12:14:43.772Z,8.90
2018-03-17T12:17:11.172Z,8.67
2018-03-17T12:19:38.654Z,7.47
2018-03-17T12:22:06.067Z,8.37
2018-03-17T12:24:33.551Z,7.00
2018-03-17T12:27:01.014Z,7.47
2018-03-17T12:29:28.428Z,9.23
2018-03-17T12:31:55.854Z,9.20
2018-03-17T12:34:23.273Z,7.20
2018-03-17T12:36:50.662Z,8.03
2018-03-17T12:39:18.038Z,8.07
2018-03-17T12:41:45.473Z,7.80
2018-03-17T12:44:12.883Z,6.43
2018-03-17T12:46:40.334Z,8.23
2018-03-17T12:49:07.723Z,9.10
2018-03-17T12:51:35.133Z,7.97
2018-03-17T12:54:02.586Z,8.93
2018-03-17T12:56:30.038Z,6.97
2018-03-17T12:58:57.565Z,8.40
2018-03-17T13:01:24.960Z,9.03
2018-03-17T13:03:52.367Z,7.53
2018-03-17T13:06:19.798Z,7.40
2018-03-17T13:08:47.183Z,8.10
2018-03-17T13:11:14.662Z,7.23
2018-03-17T13:13:42.112Z,9.67
2018-03-17T13:16:09.510Z,7.33
2018-03-17T13:18:36.977Z,7.90
2018-03-17T13:21:04.395Z,8.30
2018-03-17T13:23:31.801Z,8.30
2018-03-17T13:25:59.296Z,7.30
2018-03-17T13:28:28.363Z,8.40
2018-03-17T13:30:55.781Z,8.73
2018-03-17T13:33:23.250Z,8.67
2018-03-17T13:36:02.233Z,7.70
2018-03-17T13:38:30.061Z,8.03
2018-03-17T13:40:57.476Z,8.80
2018-03-17T13:43:24.948Z,9.43
2018-03-17T13:45:52.452Z,9.40
2018-03-17T13:48:19.924Z,8.70
2018-03-17T13:50:47.351Z,9.23
2018-03-17T13:53:14.770Z,9.20
2018-03-17T13:55:42.216Z,12.00
2018-03-17T13:58:10.135Z,8.83
2018-03-17T14:00:37.920Z,8.70
2018-03-17T14:03:05.540Z,8.40
2018-03-17T14:05:33.003Z,8.60
2018-03-17T14:08:00.671Z,8.53
2018-03-17T14:10:28.292Z,8.67
2018-03-17T14:12:55.703Z,8.80
2018-03-17T14:15:23.123Z,9.90
2018-03-17T14:17:50.522Z,8.27
2018-03-17T14:20:17.920Z,9.03
2018-03-17T14:22:45.335Z,9.97
2018-03-17T14:25:12.749Z,8.43
2018-03-17T14:27:40.193Z,9.30
2018-03-17T14:30:07.577Z,9.80
2018-03-17T14:32:35.026Z,8.77
2018-03-17T14:35:02.442Z,9.43
2018-03-17T14:37:29.888Z,8.57
2018-03-17T14:39:57.299Z,8.63
2018-03-17T14:42:24.707Z,8.20
2018-03-17T14:44:52.136Z,9.23
2018-03-17T14:47:19.619Z,9.13
2018-03-17T14:49:47.133Z,8.70
2018-03-17T14:52:14.888Z,7.87
2018-03-17T14:54:42.375Z,9.10
2018-03-17T14:57:09.861Z,9.00
2018-03-17T14:59:37.320Z,9.97
2018-03-17T15:02:04.873Z,7.90
2018-03-17T15:04:32.318Z,9.97
2018-03-17T15:06:59.880Z,9.20
2018-03-17T15:09:27.378Z,9.97
2018-03-17T15:11:54.783Z,10.00
2018-03-17T15:14:22.214Z,8.77
2018-03-17T15:16:49.642Z,10.20
2018-03-17T15:19:17.111Z,10.13
2018-03-17T15:21:44.534Z,8.47
2018-03-17T15:24:12.249Z,9.80
2018-03-17T15:26:39.779Z,8.67
2018-03-17T15:29:07.199Z,9.30
2018-03-17T15:31:34.684Z,9.50
2018-03-17T15:34:02.154Z,9.07
2018-03-17T15:36:29.558Z,7.73
2018-03-17T15:38:57.153Z,10.10
2018-03-17T15:41:24.538Z,9.33
2018-03-17T15:43:51.959Z,8.90
2018-03-17T15:46:19.380Z,8.67
2018-03-17T15:48:46.818Z,9.80
2018-03-17T15:51:14.251Z,9.60
2018-03-17T15:53:41.649Z,10.43
2018-03-17T15:56:09.234Z,9.03
2018-03-17T15:58:36.660Z,7.77
2018-03-17T16:01:04.254Z,8.10
2018-03-17T16:03:31.663Z,8.67
2018-03-17T16:05:59.101Z,8.70
2018-03-17T16:08:26.551Z,9.03
2018-03-17T16:10:54.026Z,8.97
2018-03-17T16:13:21.750Z,9.80
2018-03-17T16:15:49.358Z,9.23
2018-03-17T16:18:16.817Z,9.80
2018-03-17T16:20:44.245Z,9.60
2018-03-17T16:23:11.645Z,7.83
2018-03-17T16:25:39.122Z,9.63
2018-03-17T16:28:06.497Z,8.57
2018-03-17T16:30:34.013Z,7.27
2018-03-17T16:33:01.480Z,10.20
2018-03-17T16:35:28.879Z,8.87
2018-03-17T16:37:56.296Z,9.90
2018-03-17T16:40:23.709Z,9.37
2018-03-17T16:42:51.212Z,7.60
2018-03-17T16:45:18.759Z,9.33
2018-03-17T16:47:46.188Z,8.90
2018-03-17T16:50:13.588Z,8.80
2018-03-17T16:52:41.018Z,9.80
2018-03-17T16:55:08.481Z,9.87
2018-03-17T16:57:35.955Z,8.80
2018-03-17T17:00:03.374Z,10.10
2018-03-17T17:02:30.831Z,9.10
2018-03-17T17:04:59.203Z,10.43
2018-03-17T17:07:26.650Z,10.47
2018-03-17T17:09:54.071Z,8.13
2018-03-17T17:12:21.502Z,8.83
2018-03-17T17:14:48.942Z,9.33
2018-03-17T17:17:16.445Z,8.17
2018-03-17T17:19:43.866Z,9.70
2018-03-17T17:22:11.536Z,8.40
2018-03-17T17:24:38.956Z,8.77
2018-03-17T17:27:06.359Z,9.03
2018-03-17T17:29:33.803Z,9.83
2018-03-17T17:32:01.261Z,9.47
2018-03-17T17:34:28.665Z,9.40
2018-03-17T17:36:56.085Z,8.80
2018-03-17T17:39:23.520Z,7.77
2018-03-17T17:41:51.239Z,8.37
2018-03-17T17:44:18.648Z,9.30
2018-03-17T17:46:46.104Z,8.70
2018-03-17T17:49:13.577Z,7.30
2018-03-17T17:51:41.016Z,7.93
2018-03-17T17:54:08.569Z,7.03
2018-03-17T17:56:36.050Z,9.23
2018-03-17T17:59:03.520Z,8.07
2018-03-17T18:01:30.988Z,6.87
2018-03-17T18:03:58.642Z,7.20
2018-03-17T18:06:26.120Z,7.63
2018-03-17T18:08:53.541Z,9.37
2018-03-17T18:11:21.004Z,8.47
2018-03-17T18:13:48.507Z,7.80
2018-03-17T18:16:15.940Z,7.27
2018-03-17T18:18:43.810Z,10.60
2018-03-17T18:21:12.851Z,8.77
2018-03-17T18:23:40.702Z,6.90
2018-03-17T18:26:08.104Z,7.87
2018-03-17T18:28:37.594Z,8.63
2018-03-17T18:31:05.361Z,8.83
2018-03-17T18:33:32.835Z,8.37
2018-03-17T18:36:00.947Z,7.63
2018-03-17T18:38:28.380Z,8.27
2018-03-17T18:40:55.807Z,7.73
2018-03-17T18:43:23.343Z,8.83
2018-03-17T18:46:14.323Z,8.30
2018-03-17T18:48:41.842Z,8.60
2018-03-17T18:53:49.371Z,8.23
2018-03-17T18:56:16.818Z,6.90
2018-03-17T18:58:46.746Z,9.20
2018-03-17T19:01:14.364Z,8.10
2018-03-17T19:03:41.919Z,7.93
2018-03-17T19:09:50.726Z,7.50
2018-03-17T19:12:18.398Z,8.10
2018-03-17T19:14:54.288Z,7.90
2018-03-17T19:17:32.891Z,8.87
2018-03-17T19:20:24.761Z,8.60
2018-03-17T19:23:08.212Z,9.50
2018-03-17T19:25:35.864Z,7.80
2018-03-17T19:28:04.053Z,9.30
2018-03-17T19:30:39.491Z,8.83
2018-03-17T19:33:06.957Z,9.20
2018-03-17T19:35:34.389Z,7.57
2018-03-17T19:38:01.837Z,8.70
2018-03-17T19:40:30.295Z,8.10
2018-03-17T19:42:57.842Z,8.27
2018-03-17T19:45:25.332Z,9.30
2018-03-17T19:47:54.105Z,10.00
2018-03-17T19:50:21.742Z,8.10
2018-03-17T19:52:49.237Z,11.37
2018-03-17T19:55:16.744Z,9.30
2018-03-17T19:57:44.199Z,9.17
2018-03-17T20:00:11.645Z,10.27
2018-03-17T20:02:39.109Z,9.13
2018-03-17T20:05:06.600Z,8.20
2018-03-17T20:07:34.057Z,8.27
2018-03-17T20:17:01.673Z,9.00
2018-03-17T20:19:29.105Z,9.10
2018-03-17T20:21:56.538Z,8.97
2018-03-17T20:24:24.006Z,9.13
2018-03-17T20:26:51.479Z,8.13
2018-03-17T20:29:18.955Z,10.70
2018-03-17T20:31:46.358Z,7.30
2018-03-17T20:34:13.869Z,8.80
2018-03-17T20:36:41.329Z,8.23
2018-03-17T20:39:08.774Z,9.27
2018-03-17T20:41:36.362Z,9.70
2018-03-17T20:44:04.392Z,9.93
2018-03-17T20:46:31.874Z,9.90
2018-03-17T20:48:59.295Z,10.90
2018-03-17T20:51:27.059Z,10.90
2018-03-17T20:53:54.769Z,10.67
2018-03-17T20:56:22.558Z,10.63
2018-03-17T20:58:49.999Z,8.30
2018-03-17T21:01:18.068Z,7.93
2018-03-17T21:03:45.484Z,10.30
2018-03-17T21:06:12.982Z,10.30
2018-03-17T21:08:41.350Z,11.53
2018-03-17T21:11:08.882Z,10.60
2018-03-17T21:13:36.643Z,9.60
2018-03-17T21:16:04.129Z,10.43
2018-03-17T21:18:31.586Z,10.67
2018-03-17T21:20:59.076Z,8.80
2018-03-17T21:23:26.582Z,10.27
2018-03-17T21:25:54.615Z,10.53
2018-03-17T21:28:22.085Z,10.33
2018-03-17T21:30:49.680Z,8.10
2018-03-17T21:33:17.096Z,10.57
2018-03-17T21:35:44.696Z,12.17
2018-03-17T21:38:12.590Z,11.87
2018-03-17T21:40:40.256Z,9.13
2018-03-17T21:43:08.210Z,10.00
2018-03-17T21:45:36.489Z,11.27
2018-03-17T21:48:04.455Z,11.40
2018-03-17T21:50:31.949Z,11.93
2018-03-17T21:52:59.425Z,9.67
2018-03-17T21:55:26.836Z,10.60
2018-03-17T21:57:54.256Z,10.83
2018-03-17T22:00:21.851Z,11.87
2018-03-17T22:02:49.271Z,11.03
2018-03-17T22:05:16.876Z,9.80
2018-03-17T22:07:44.585Z,9.90
2018-03-17T22:10:12.650Z,9.53
2018-03-17T22:12:40.120Z,10.80
2018-03-17T22:15:08.097Z,9.77
2018-03-17T22:17:35.518Z,12.57
2018-03-17T22:20:03.174Z,11.80
2018-03-17T22:22:30.809Z,12.00
2018-03-17T22:24:58.251Z,9.63
2018-03-17T22:27:26.480Z,11.97
2018-03-17T22:29:53.933Z,10.60
2018-03-17T22:32:21.900Z,12.70
2018-03-17T22:34:49.354Z,10.53
2018-03-17T22:37:16.796Z,11.30
2018-03-17T22:39:44.273Z,11.73
2018-03-17T22:42:11.688Z,13.23
2018-03-17T22:44:39.127Z,12.00
2018-03-17T22:47:06.737Z,11.47
2018-03-17T22:49:34.124Z,12.50
2018-03-17T22:52:01.604Z,11.30
2018-03-17T22:54:29.045Z,10.93
2018-03-17T22:56:56.467Z,12.40
2018-03-17T22:59:23.948Z,9.77
2018-03-17T23:01:51.479Z,10.87
2018-03-17T23:04:19.047Z,10.70
2018-03-17T23:06:46.506Z,12.63
2018-03-17T23:09:14.030Z,12.03
2018-03-17T23:11:41.475Z,12.23
2018-03-17T23:14:08.945Z,11.57
2018-03-17T23:16:36.359Z,13.27
2018-03-17T23:19:03.850Z,13.43
2018-03-17T23:21:31.485Z,13.50
2018-03-17T23:23:58.921Z,15.80
2018-03-17T23:26:26.481Z,16.43
2018-03-17T23:28:54.148Z,16.17
2018-03-17T23:31:23.162Z,15.20
2018-03-17T23:33:50.804Z,16.50
2018-03-17T23:36:18.474Z,16.90
2018-03-17T23:38:46.167Z,15.80
2018-03-17T23:41:13.624Z,16.37
2018-03-17T23:43:41.863Z,15.40
2018-03-17T23:46:09.482Z,16.33
2018-03-17T23:48:37.192Z,15.03
2018-03-17T23:51:04.813Z,15.60
2018-03-17T23:53:32.509Z,12.60
2018-03-17T23:56:00.121Z,15.20
2018-03-17T23:58:27.553Z,12.83
